Portada
METAR-TAF:

METAR-TAF

Aeropuertos :

Wallis, Francia

Aeropuerto de Hihifo

latitud: 13-14S, longitud: 176-10W, altitud: 23 m

METAR: falta

Hora: 08:35 (20:35 UTC)

Pronóstico

El informe se hizo hace 3 horas y 35 minutos, a las 17:00 UTC
Pronóstico válido del 27 a las 18 UTC al 28 a las 18 UTC
Viento 6 kt del norte-noreste
Visibilidad 10 km o más
Nubes dispersas a una altura de 2000 ft
Cielo nuboso a una altura de 4000 ft
Probabilidad 40%
del 27 a las 18 UTC al 27 a las 24 UTC
Visibilidad: 3000 m
Nubes dispersas a una altura de 2000 ft, Cumulus congestus.
chaparrones de lluvia

TAF: NLWW 271700Z 2718/2818 03006KT 9999 SCT020 BKN040 PROB40 2718/2724 3000 SHRA SCT020TCU

Observaciones y pronósticos meteorológicos de más de 4000 aeropuertos (mensajes METAR y TAF).

Los puntos amarillos y rojos representan las estaciones disponibles.

Ponga el ratón en el punto deseado para ver el nombre de la estación.

Haga clic para ver las observaciones y los pronósticos meteorológicos.

Para cambiar el mapa : haga clic en los botones verdes con una cruz de color negro para hacer un zoom, en el botón verde con un guión para alejar o en las flechas verdes para mapas adyacentes.


METAR-TAF: